Time;durP1;ratioP1;P1;durP2;ratioP2;P2;SDS_P1;SDS_P2;PMS_P1;PMS_P2;Temp;Humidity;BMP_temperature;BMP_pressure;BME280_temperature;BME280_humidity;BME280_pressure;Samples;Min_cycle;Max_cycle;Signal;HPM_P1;HPM_P2
2023/07/24 00:02:08;;;;;;;914.38;742.78;;;;;;;;;;5018364;28;20440;-62
2023/07/24 00:04:35;;;;;;;923.28;740.47;;;;;;;;;;5023421;28;20434;-61
2023/07/24 00:07:02;;;;;;;920.72;747.17;;;;;;;;;;5029659;28;20508;-62
2023/07/24 00:09:30;;;;;;;908.33;742.80;;;;;;;;;;5030382;28;20447;-62
2023/07/24 00:11:57;;;;;;;864.10;745.37;;;;;;;;;;5021389;28;20443;-63
2023/07/24 00:14:24;;;;;;;937.27;741.50;;;;;;;;;;5022794;28;20435;-63
2023/07/24 00:16:51;;;;;;;913.25;744.83;;;;;;;;;;5028828;28;20469;-63
2023/07/24 00:19:19;;;;;;;945.75;741.22;;;;;;;;;;5027497;28;20438;-63
2023/07/24 00:21:46;;;;;;;959.33;739.72;;;;;;;;;;5029296;28;20966;-63
2023/07/24 00:24:13;;;;;;;960.28;742.03;;;;;;;;;;5023537;28;20505;-63
2023/07/24 00:26:42;;;;;;;958.50;739.15;;;;;;;;;;5029506;28;20434;-62
2023/07/24 00:29:10;;;;;;;956.38;736.65;;;;;;;;;;5029636;28;20488;-63
2023/07/24 00:31:40;;;;;;;950.38;726.35;;;;;;;;;;5028247;28;20554;-62
2023/07/24 00:34:07;;;;;;;951.95;729.25;;;;;;;;;;5026902;28;21206;-62
2023/07/24 00:36:38;;;;;;;952.38;732.80;;;;;;;;;;5028068;28;20845;-62
2023/07/24 00:39:05;;;;;;;960.60;734.70;;;;;;;;;;5027950;28;20909;-62
2023/07/24 00:41:33;;;;;;;948.42;728.80;;;;;;;;;;5027236;28;20434;-62
2023/07/24 00:44:02;;;;;;;952.35;733.60;;;;;;;;;;5028686;28;20435;-62
2023/07/24 00:46:32;;;;;;;960.47;734.72;;;;;;;;;;5024977;28;20430;-62
2023/07/24 00:49:01;;;;;;;960.63;733.28;;;;;;;;;;5027594;28;20591;-62
2023/07/24 00:51:28;;;;;;;950.33;731.00;;;;;;;;;;5030210;28;20438;-62
2023/07/24 00:53:56;;;;;;;955.83;737.40;;;;;;;;;;5012737;28;20928;-62
2023/07/24 00:56:24;;;;;;;951.00;728.92;;;;;;;;;;5027730;28;20516;-63
2023/07/24 00:58:57;;;;;;;950.97;726.13;;;;;;;;;;5026049;28;20758;-63
2023/07/24 01:01:25;;;;;;;950.60;724.03;;;;;;;;;;5026799;28;20447;-63
2023/07/24 01:03:53;;;;;;;952.38;728.22;;;;;;;;;;5026557;28;20430;-62
2023/07/24 01:06:20;;;;;;;953.58;731.95;;;;;;;;;;5028571;28;20495;-63
2023/07/24 01:08:47;;;;;;;949.47;727.47;;;;;;;;;;5028847;28;20497;-63
2023/07/24 01:11:27;;;;;;;951.53;726.90;;;;;;;;;;5010471;28;20522;-63
2023/07/24 01:14:27;;;;;;;953.22;727.25;;;;;;;;;;5020677;28;20939;-63
2023/07/24 01:16:56;;;;;;;925.90;724.30;;;;;;;;;;4990687;28;20459;-62
2023/07/24 01:19:50;;;;;;;946.67;728.17;;;;;;;;;;5027883;28;21980;-61
2023/07/24 01:22:29;;;;;;;823.95;730.80;;;;;;;;;;5023874;28;20641;-62
2023/07/24 01:25:06;;;;;;;943.40;728.92;;;;;;;;;;5025965;28;20427;-62
2023/07/24 01:27:33;;;;;;;941.40;723.80;;;;;;;;;;5019853;28;20551;-63
2023/07/24 01:30:00;;;;;;;828.43;725.90;;;;;;;;;;5020818;28;20426;-63
2023/07/24 01:32:33;;;;;;;945.95;714.83;;;;;;;;;;5035595;28;20450;-63
2023/07/24 01:35:01;;;;;;;929.28;708.72;;;;;;;;;;5008984;28;20431;-63
2023/07/24 01:37:28;;;;;;;927.97;701.28;;;;;;;;;;5026968;28;20427;-63
2023/07/24 01:39:58;;;;;;;921.40;696.30;;;;;;;;;;5026501;28;20518;-63
2023/07/24 01:42:28;;;;;;;922.42;695.03;;;;;;;;;;5028064;28;20439;-63
2023/07/24 01:44:56;;;;;;;919.55;695.30;;;;;;;;;;5017437;28;20471;-63
2023/07/24 01:47:23;;;;;;;916.70;689.67;;;;;;;;;;5027724;28;20538;-63
2023/07/24 01:49:53;;;;;;;917.42;691.42;;;;;;;;;;5026302;28;20510;-63
2023/07/24 01:52:20;;;;;;;913.00;693.22;;;;;;;;;;5025119;28;20438;-63
2023/07/24 01:54:47;;;;;;;915.13;690.00;;;;;;;;;;5026079;28;20910;-63
2023/07/24 01:57:14;;;;;;;913.87;690.23;;;;;;;;;;5027288;28;20430;-63
2023/07/24 01:59:44;;;;;;;914.50;690.42;;;;;;;;;;5024646;28;20545;-63
2023/07/24 02:02:12;;;;;;;919.60;697.20;;;;;;;;;;5026047;28;20431;-63
2023/07/24 02:04:39;;;;;;;918.38;691.13;;;;;;;;;;5026464;28;21024;-64
2023/07/24 02:07:06;;;;;;;918.43;692.17;;;;;;;;;;5035139;28;20600;-62
2023/07/24 02:09:36;;;;;;;921.58;695.70;;;;;;;;;;5027053;28;20481;-62
2023/07/24 02:12:03;;;;;;;919.53;689.03;;;;;;;;;;5023240;28;21167;-63
2023/07/24 02:14:31;;;;;;;923.33;696.78;;;;;;;;;;5027395;28;20545;-63
2023/07/24 02:16:58;;;;;;;923.30;697.40;;;;;;;;;;5027519;28;20427;-63
2023/07/24 02:19:25;;;;;;;924.33;696.90;;;;;;;;;;5026570;28;20517;-62
2023/07/24 02:21:54;;;;;;;924.05;699.00;;;;;;;;;;5026887;28;20929;-63
2023/07/24 02:24:22;;;;;;;926.65;697.30;;;;;;;;;;5007140;28;20430;-63
2023/07/24 02:26:54;;;;;;;925.05;694.72;;;;;;;;;;5027237;28;20781;-63
2023/07/24 02:29:22;;;;;;;924.17;693.67;;;;;;;;;;5027127;28;20491;-62
2023/07/24 02:31:50;;;;;;;921.50;689.20;;;;;;;;;;5024760;28;20427;-63
2023/07/24 02:34:26;;;;;;;909.47;671.75;;;;;;;;;;5027095;28;20940;-63
2023/07/24 02:36:53;;;;;;;922.13;672.38;;;;;;;;;;5027006;28;20814;-63
2023/07/24 02:39:21;;;;;;;912.90;670.60;;;;;;;;;;5024428;28;20430;-63
2023/07/24 02:41:49;;;;;;;923.67;667.72;;;;;;;;;;5026218;28;20440;-63
2023/07/24 02:44:16;;;;;;;922.00;673.53;;;;;;;;;;5024388;28;20810;-63
2023/07/24 02:46:46;;;;;;;914.40;670.80;;;;;;;;;;5019425;28;20435;-63
2023/07/24 02:49:16;;;;;;;921.80;670.50;;;;;;;;;;5025269;28;20549;-63
2023/07/24 02:51:43;;;;;;;918.63;669.75;;;;;;;;;;5026618;28;20434;-63
2023/07/24 02:54:11;;;;;;;931.00;671.05;;;;;;;;;;5017037;28;20441;-63
2023/07/24 02:56:39;;;;;;;904.63;658.80;;;;;;;;;;5000610;28;20433;-63
2023/07/24 02:59:06;;;;;;;903.50;657.40;;;;;;;;;;5021194;28;20489;-63
2023/07/24 03:01:33;;;;;;;893.42;654.03;;;;;;;;;;5027772;28;20442;-62
2023/07/24 03:04:05;;;;;;;901.17;661.20;;;;;;;;;;5029128;28;20427;-63
2023/07/24 03:06:32;;;;;;;899.70;655.90;;;;;;;;;;5028316;28;20493;-62
2023/07/24 03:09:00;;;;;;;906.13;659.25;;;;;;;;;;5031372;28;20434;-63
2023/07/24 03:11:31;;;;;;;910.00;657.05;;;;;;;;;;5027701;28;20521;-62
2023/07/24 03:14:00;;;;;;;912.83;664.83;;;;;;;;;;5022639;28;20445;-63
2023/07/24 03:16:28;;;;;;;910.20;661.13;;;;;;;;;;5029379;28;20434;-63
2023/07/24 03:18:58;;;;;;;912.83;664.55;;;;;;;;;;5028937;28;20449;-63
2023/07/24 03:21:28;;;;;;;906.65;655.85;;;;;;;;;;5034729;28;20777;-62
2023/07/24 03:23:58;;;;;;;905.80;659.17;;;;;;;;;;5027840;28;21137;-63
2023/07/24 03:26:25;;;;;;;902.00;653.70;;;;;;;;;;5030373;28;20434;-62
2023/07/24 03:28:53;;;;;;;901.42;652.45;;;;;;;;;;5021873;28;21207;-63
2023/07/24 03:31:20;;;;;;;902.42;657.88;;;;;;;;;;5028049;28;20458;-63
2023/07/24 03:33:47;;;;;;;901.55;653.08;;;;;;;;;;5029357;28;20434;-63
2023/07/24 03:36:15;;;;;;;904.63;653.22;;;;;;;;;;5029984;28;20474;-62
2023/07/24 03:38:42;;;;;;;906.53;656.97;;;;;;;;;;5021767;28;20436;-63
2023/07/24 03:41:09;;;;;;;907.72;651.33;;;;;;;;;;5029156;28;20498;-63
2023/07/24 03:43:36;;;;;;;907.53;653.55;;;;;;;;;;5024925;28;20427;-63
2023/07/24 03:46:03;;;;;;;909.33;657.13;;;;;;;;;;5027194;28;20427;-63
2023/07/24 03:48:31;;;;;;;909.90;655.70;;;;;;;;;;5033973;28;20555;-63
2023/07/24 03:51:01;;;;;;;907.88;656.70;;;;;;;;;;5031675;28;20426;-62
2023/07/24 03:53:28;;;;;;;911.93;660.57;;;;;;;;;;5029537;28;20616;-63
2023/07/24 03:55:58;;;;;;;917.92;664.88;;;;;;;;;;5022392;28;20431;-62
2023/07/24 03:58:26;;;;;;;916.90;667.93;;;;;;;;;;5022366;28;20921;-63
2023/07/24 04:00:53;;;;;;;917.30;668.50;;;;;;;;;;5027742;28;20445;-62
2023/07/24 04:03:20;;;;;;;914.70;663.78;;;;;;;;;;5022215;28;20433;-63
2023/07/24 04:05:47;;;;;;;913.45;660.25;;;;;;;;;;5020647;28;20430;-63
2023/07/24 04:08:15;;;;;;;917.75;666.35;;;;;;;;;;5027488;28;20513;-63
2023/07/24 04:10:42;;;;;;;920.13;677.55;;;;;;;;;;5018532;28;20462;-62
2023/07/24 04:13:09;;;;;;;921.15;673.55;;;;;;;;;;5021324;28;20433;-63
2023/07/24 04:15:36;;;;;;;914.00;672.53;;;;;;;;;;5029144;28;20477;-63
2023/07/24 04:18:03;;;;;;;911.30;672.00;;;;;;;;;;5010104;28;20497;-63
2023/07/24 04:20:31;;;;;;;906.23;664.97;;;;;;;;;;5021710;28;20431;-63
2023/07/24 04:22:58;;;;;;;903.53;663.95;;;;;;;;;;5029462;28;20530;-63
2023/07/24 04:25:25;;;;;;;906.72;663.05;;;;;;;;;;5011191;28;20485;-63
2023/07/24 04:27:52;;;;;;;907.15;664.22;;;;;;;;;;5023012;28;20499;-63
2023/07/24 04:30:22;;;;;;;908.97;667.38;;;;;;;;;;5027798;28;20427;-63
2023/07/24 04:32:50;;;;;;;910.90;671.15;;;;;;;;;;5028707;28;20873;-63
2023/07/24 04:35:17;;;;;;;911.63;671.63;;;;;;;;;;5026645;28;20435;-63
2023/07/24 04:37:47;;;;;;;914.05;673.42;;;;;;;;;;5030469;28;20446;-63
2023/07/24 04:40:14;;;;;;;919.72;676.10;;;;;;;;;;5010822;28;20809;-63
2023/07/24 04:42:41;;;;;;;919.28;679.90;;;;;;;;;;5027126;28;20463;-63
2023/07/24 04:45:09;;;;;;;922.47;685.50;;;;;;;;;;5026281;28;20947;-63
2023/07/24 04:47:38;;;;;;;921.25;683.70;;;;;;;;;;5021822;28;20427;-63
2023/07/24 04:50:05;;;;;;;921.80;689.00;;;;;;;;;;5030141;28;20426;-63
2023/07/24 04:52:32;;;;;;;916.58;681.60;;;;;;;;;;5025858;28;20499;-63
2023/07/24 04:55:02;;;;;;;917.33;684.22;;;;;;;;;;5036438;28;20442;-63
2023/07/24 04:57:29;;;;;;;919.65;687.42;;;;;;;;;;5020125;28;20446;-63
2023/07/24 04:59:57;;;;;;;920.15;689.70;;;;;;;;;;5028612;28;20826;-63
2023/07/24 05:02:24;;;;;;;924.72;694.85;;;;;;;;;;5033419;28;20578;-63
2023/07/24 05:04:51;;;;;;;924.77;694.43;;;;;;;;;;5016919;28;20449;-63
2023/07/24 05:07:18;;;;;;;926.50;692.55;;;;;;;;;;5026303;28;20524;-63
2023/07/24 05:09:46;;;;;;;926.25;693.83;;;;;;;;;;5026180;28;20435;-63
2023/07/24 05:12:13;;;;;;;932.45;698.80;;;;;;;;;;5028226;28;20773;-63
2023/07/24 05:14:40;;;;;;;930.87;700.97;;;;;;;;;;5033978;28;20754;-64
2023/07/24 05:17:10;;;;;;;928.97;697.90;;;;;;;;;;5031721;28;20529;-63
2023/07/24 05:19:37;;;;;;;929.33;695.78;;;;;;;;;;5024720;28;20459;-63
2023/07/24 05:22:04;;;;;;;934.27;705.30;;;;;;;;;;5012144;28;20438;-64
2023/07/24 05:24:32;;;;;;;932.40;702.97;;;;;;;;;;5021553;28;20442;-63
2023/07/24 05:26:59;;;;;;;933.00;704.40;;;;;;;;;;5013781;28;20444;-63
2023/07/24 05:29:26;;;;;;;937.75;713.10;;;;;;;;;;5024667;28;20435;-62
2023/07/24 05:31:53;;;;;;;935.40;707.93;;;;;;;;;;5027188;28;20481;-62
2023/07/24 05:34:20;;;;;;;941.58;720.65;;;;;;;;;;5024827;28;20445;-62
2023/07/24 05:36:48;;;;;;;938.47;717.17;;;;;;;;;;5030918;28;20516;-62
2023/07/24 05:39:15;;;;;;;936.33;721.72;;;;;;;;;;5017740;28;20439;-62
2023/07/24 05:41:42;;;;;;;936.20;715.17;;;;;;;;;;5025683;28;20470;-62
2023/07/24 05:44:12;;;;;;;949.00;728.20;;;;;;;;;;5024781;28;20441;-62
2023/07/24 05:46:39;;;;;;;946.10;727.67;;;;;;;;;;5024494;28;21005;-63
2023/07/24 05:49:07;;;;;;;947.07;729.40;;;;;;;;;;5030995;28;20427;-63
2023/07/24 05:51:34;;;;;;;954.55;736.63;;;;;;;;;;5017597;28;20515;-63
2023/07/24 05:54:01;;;;;;;963.20;745.38;;;;;;;;;;5022417;28;20430;-63
2023/07/24 05:56:28;;;;;;;961.90;746.25;;;;;;;;;;5008367;28;20517;-63
2023/07/24 05:58:56;;;;;;;966.67;749.08;;;;;;;;;;5030881;28;20534;-63
2023/07/24 06:01:23;;;;;;;962.15;745.72;;;;;;;;;;5028195;28;20527;-63
2023/07/24 06:03:50;;;;;;;973.22;762.90;;;;;;;;;;5009512;28;20435;-63
2023/07/24 06:06:18;;;;;;;965.95;755.42;;;;;;;;;;5012815;28;20426;-63
2023/07/24 06:08:47;;;;;;;961.50;750.10;;;;;;;;;;5021771;28;20489;-63
2023/07/24 06:11:14;;;;;;;967.30;762.70;;;;;;;;;;5018867;28;20898;-63
2023/07/24 06:13:41;;;;;;;958.92;747.35;;;;;;;;;;5024639;28;20482;-63
2023/07/24 06:16:08;;;;;;;960.08;748.88;;;;;;;;;;5023660;28;20427;-63
2023/07/24 06:18:35;;;;;;;957.42;749.35;;;;;;;;;;5018491;28;20433;-63
2023/07/24 06:21:03;;;;;;;959.13;750.28;;;;;;;;;;5025907;28;20438;-63
2023/07/24 06:23:30;;;;;;;959.58;755.35;;;;;;;;;;5020063;28;21119;-63
2023/07/24 06:25:57;;;;;;;942.33;730.60;;;;;;;;;;5024021;28;20580;-63
2023/07/24 06:28:24;;;;;;;936.20;729.97;;;;;;;;;;5018570;28;21016;-63
2023/07/24 06:30:55;;;;;;;939.95;731.83;;;;;;;;;;5023817;28;20453;-62
2023/07/24 06:33:22;;;;;;;929.78;726.20;;;;;;;;;;5022485;28;20442;-63
2023/07/24 06:35:50;;;;;;;940.35;740.17;;;;;;;;;;5022409;28;20518;-63
2023/07/24 06:38:18;;;;;;;946.80;747.40;;;;;;;;;;5017186;28;20530;-63
2023/07/24 06:40:45;;;;;;;937.05;743.67;;;;;;;;;;5025693;28;20438;-63
2023/07/24 06:43:12;;;;;;;950.55;757.58;;;;;;;;;;5026820;28;20751;-63
2023/07/24 06:45:39;;;;;;;952.97;758.83;;;;;;;;;;5028340;28;20487;-63
2023/07/24 06:48:09;;;;;;;946.00;752.38;;;;;;;;;;5026066;28;20466;-63
2023/07/24 06:50:36;;;;;;;946.53;751.53;;;;;;;;;;5027304;28;20924;-63
2023/07/24 06:53:04;;;;;;;943.85;747.67;;;;;;;;;;5029480;28;20509;-63
2023/07/24 06:55:31;;;;;;;936.70;748.20;;;;;;;;;;5028101;28;20487;-63
2023/07/24 06:57:58;;;;;;;942.40;752.10;;;;;;;;;;5026464;28;20550;-63
2023/07/24 07:00:28;;;;;;;928.40;743.15;;;;;;;;;;5025188;28;20486;-62
2023/07/24 07:02:55;;;;;;;937.45;749.75;;;;;;;;;;5026489;28;20493;-62
2023/07/24 07:05:23;;;;;;;935.47;744.67;;;;;;;;;;5020917;28;20447;-62
2023/07/24 07:07:50;;;;;;;937.50;745.40;;;;;;;;;;5023625;28;20468;-62
2023/07/24 07:10:17;;;;;;;931.15;742.03;;;;;;;;;;5025031;28;20449;-62
2023/07/24 07:12:47;;;;;;;937.33;748.17;;;;;;;;;;5027044;28;20552;-62
2023/07/24 07:15:14;;;;;;;938.90;750.83;;;;;;;;;;5021250;28;20460;-62
2023/07/24 07:17:42;;;;;;;951.10;762.90;;;;;;;;;;5027269;28;20495;-62
2023/07/24 07:20:09;;;;;;;957.42;777.50;;;;;;;;;;5022843;28;20442;-63
2023/07/24 07:22:36;;;;;;;950.00;775.53;;;;;;;;;;5017444;28;20435;-63
2023/07/24 07:25:04;;;;;;;952.37;779.23;;;;;;;;;;5028025;28;20485;-63
2023/07/24 07:27:31;;;;;;;953.65;783.33;;;;;;;;;;5029833;28;20990;-63
2023/07/24 07:29:59;;;;;;;946.63;774.55;;;;;;;;;;5026821;28;20483;-63
2023/07/24 07:32:27;;;;;;;942.22;767.40;;;;;;;;;;5024365;28;20516;-63
2023/07/24 07:34:54;;;;;;;938.13;766.13;;;;;;;;;;5028083;28;21094;-63
2023/07/24 07:37:21;;;;;;;950.58;780.00;;;;;;;;;;5026091;28;20433;-63
2023/07/24 07:39:48;;;;;;;955.03;785.25;;;;;;;;;;5026773;28;20455;-63
2023/07/24 07:42:15;;;;;;;958.53;790.63;;;;;;;;;;5023571;28;20573;-63
2023/07/24 07:44:46;;;;;;;955.47;783.10;;;;;;;;;;5027027;28;20439;-63
2023/07/24 07:47:13;;;;;;;962.15;787.42;;;;;;;;;;5028289;28;20434;-63
2023/07/24 07:49:41;;;;;;;956.20;777.85;;;;;;;;;;5024504;28;20431;-62
2023/07/24 07:52:09;;;;;;;962.72;783.28;;;;;;;;;;5027011;28;20520;-63
2023/07/24 07:54:36;;;;;;;956.15;772.90;;;;;;;;;;5022493;28;20481;-62
2023/07/24 07:57:04;;;;;;;951.83;773.53;;;;;;;;;;5025530;28;20536;-62
2023/07/24 07:59:35;;;;;;;949.22;769.75;;;;;;;;;;5028178;28;20421;-63
2023/07/24 08:02:05;;;;;;;950.58;765.88;;;;;;;;;;5023524;28;20952;-63
2023/07/24 08:04:32;;;;;;;953.92;769.05;;;;;;;;;;5020392;28;20451;-62
2023/07/24 08:07:00;;;;;;;946.85;762.30;;;;;;;;;;5027793;28;20427;-63
2023/07/24 08:09:32;;;;;;;942.95;761.10;;;;;;;;;;5009300;28;20522;-63
2023/07/24 08:11:59;;;;;;;929.97;749.67;;;;;;;;;;5028051;28;20467;-62
2023/07/24 08:14:30;;;;;;;944.50;757.90;;;;;;;;;;5022653;28;20438;-63
2023/07/24 08:16:58;;;;;;;943.58;763.25;;;;;;;;;;5021311;28;20470;-63
2023/07/24 08:19:29;;;;;;;952.78;778.63;;;;;;;;;;5004916;28;20435;-63
2023/07/24 08:21:56;;;;;;;951.33;777.63;;;;;;;;;;5003519;28;20443;-62
2023/07/24 08:24:23;;;;;;;954.70;783.42;;;;;;;;;;5023657;28;20451;-63
2023/07/24 08:26:50;;;;;;;956.00;785.33;;;;;;;;;;5023664;28;20893;-63
2023/07/24 08:29:19;;;;;;;956.35;787.53;;;;;;;;;;5029668;28;20584;-63
2023/07/24 08:31:46;;;;;;;958.63;794.30;;;;;;;;;;5030191;28;20427;-63
2023/07/24 08:34:13;;;;;;;952.22;785.22;;;;;;;;;;5025530;28;20522;-61
2023/07/24 08:36:40;;;;;;;954.08;793.83;;;;;;;;;;5020776;28;20466;-61
2023/07/24 08:39:07;;;;;;;962.65;801.30;;;;;;;;;;5021527;28;20435;-61
2023/07/24 08:41:37;;;;;;;961.50;801.70;;;;;;;;;;5002641;28;20507;-61
2023/07/24 08:44:08;;;;;;;960.40;799.17;;;;;;;;;;5017773;28;20564;-61
2023/07/24 08:46:45;;;;;;;958.70;796.53;;;;;;;;;;5029034;28;20429;-61
2023/07/24 08:49:13;;;;;;;956.53;794.63;;;;;;;;;;5024114;28;20435;-63
2023/07/24 08:51:44;;;;;;;955.25;792.83;;;;;;;;;;5008237;28;20431;-63
2023/07/24 08:54:12;;;;;;;956.33;792.13;;;;;;;;;;5025075;28;20439;-62
2023/07/24 08:56:40;;;;;;;949.85;783.63;;;;;;;;;;5031742;28;20518;-63
2023/07/24 08:59:18;;;;;;;944.22;766.75;;;;;;;;;;5026804;28;20435;-63
2023/07/24 09:01:45;;;;;;;939.67;761.35;;;;;;;;;;5027770;28;20488;-62
2023/07/24 09:04:13;;;;;;;958.53;784.67;;;;;;;;;;5019054;28;20438;-62
2023/07/24 09:06:41;;;;;;;967.05;797.40;;;;;;;;;;5021103;28;20924;-63
2023/07/24 09:09:15;;;;;;;963.08;788.28;;;;;;;;;;5021400;28;20559;-61
2023/07/24 09:11:52;;;;;;;957.97;782.70;;;;;;;;;;5028075;28;20435;-62
2023/07/24 09:14:26;;;;;;;956.90;778.85;;;;;;;;;;5007449;28;20969;-62
2023/07/24 09:17:07;;;;;;;959.80;776.45;;;;;;;;;;5017520;28;21149;-63
2023/07/24 09:19:46;;;;;;;955.35;767.20;;;;;;;;;;5097344;27;20374;-61
2023/07/24 09:22:16;;;;;;;943.28;757.03;;;;;;;;;;5075136;28;20458;-62
2023/07/24 09:24:55;;;;;;;942.63;752.80;;;;;;;;;;5072228;28;20422;-61
2023/07/24 09:27:26;;;;;;;911.22;719.47;;;;;;;;;;5075468;28;20435;-61
2023/07/24 09:29:53;;;;;;;905.33;711.08;;;;;;;;;;5084556;28;20430;-61
2023/07/24 09:32:21;;;;;;;908.95;713.53;;;;;;;;;;5091641;28;20516;-61
2023/07/24 09:34:53;;;;;;;922.35;731.25;;;;;;;;;;5082161;28;20560;-61
2023/07/24 09:37:24;;;;;;;924.33;740.88;;;;;;;;;;5082183;28;20521;-62
2023/07/24 09:39:54;;;;;;;910.92;733.45;;;;;;;;;;5066587;28;20427;-63
2023/07/24 09:42:48;;;;;;;910.25;718.50;;;;;;;;;;5083437;28;20616;-62
2023/07/24 09:45:36;;;;;;;906.97;720.70;;;;;;;;;;5077847;28;20511;-63
2023/07/24 09:48:16;;;;;;;925.25;733.70;;;;;;;;;;5074147;28;20527;-62
2023/07/24 09:51:03;;;;;;;929.95;747.28;;;;;;;;;;5077959;28;20507;-62
2023/07/24 09:53:34;;;;;;;925.30;745.42;;;;;;;;;;5084396;28;20438;-62
2023/07/24 09:56:04;;;;;;;927.15;753.10;;;;;;;;;;5093090;28;21071;-62
2023/07/24 09:58:34;;;;;;;934.10;764.42;;;;;;;;;;5073916;28;20527;-62
2023/07/24 10:01:08;;;;;;;923.83;751.15;;;;;;;;;;5078663;28;20429;-63
2023/07/24 10:03:36;;;;;;;921.97;741.07;;;;;;;;;;5079439;28;20991;-62
2023/07/24 10:06:05;;;;;;;921.83;740.83;;;;;;;;;;5075393;28;20461;-63
2023/07/24 10:08:33;;;;;;;927.30;752.65;;;;;;;;;;5079396;28;20906;-62
2023/07/24 10:11:00;;;;;;;932.22;762.85;;;;;;;;;;5068593;28;20466;-63
2023/07/24 10:13:28;;;;;;;926.33;751.60;;;;;;;;;;5082370;28;20568;-63
2023/07/24 10:15:55;;;;;;;926.85;753.40;;;;;;;;;;5068939;28;20517;-62
2023/07/24 10:18:31;;;;;;;925.38;748.97;;;;;;;;;;5080610;28;20418;-63
2023/07/24 10:21:04;;;;;;;921.85;753.72;;;;;;;;;;5082997;28;20855;-63
2023/07/24 10:23:31;;;;;;;928.22;761.90;;;;;;;;;;5083030;28;20456;-62
2023/07/24 10:26:05;;;;;;;927.70;765.90;;;;;;;;;;5080703;28;20428;-63
2023/07/24 10:28:39;;;;;;;933.50;767.17;;;;;;;;;;5074418;28;20431;-63
2023/07/24 10:31:19;;;;;;;940.10;783.30;;;;;;;;;;5058289;28;20431;-64
2023/07/24 10:33:47;;;;;;;934.75;772.85;;;;;;;;;;5056862;28;20440;-61
2023/07/24 10:36:19;;;;;;;943.88;786.55;;;;;;;;;;5050700;28;21829;-61
2023/07/24 10:39:08;;;;;;;938.50;777.30;;;;;;;;;;5061325;28;20872;-61
2023/07/24 10:41:36;;;;;;;942.10;788.95;;;;;;;;;;5058708;28;20449;-61
2023/07/24 10:44:04;;;;;;;938.72;784.90;;;;;;;;;;5066198;28;20427;-62
2023/07/24 10:46:38;;;;;;;942.60;795.75;;;;;;;;;;5077438;28;20902;-61
2023/07/24 10:49:05;;;;;;;946.22;799.25;;;;;;;;;;5070597;28;20484;-63
2023/07/24 10:51:34;;;;;;;933.85;782.35;;;;;;;;;;5074904;28;21033;-62
2023/07/24 10:54:02;;;;;;;941.10;789.45;;;;;;;;;;5067081;28;20445;-62
2023/07/24 10:56:29;;;;;;;942.80;795.60;;;;;;;;;;5056678;28;20480;-63
2023/07/24 10:58:56;;;;;;;930.97;771.20;;;;;;;;;;5056167;28;20752;-62
2023/07/24 11:01:24;;;;;;;925.90;762.42;;;;;;;;;;5060177;28;20546;-64
2023/07/24 11:03:51;;;;;;;941.60;789.50;;;;;;;;;;5059159;28;20436;-62
2023/07/24 11:06:19;;;;;;;953.00;801.88;;;;;;;;;;5048238;28;20475;-62
2023/07/24 11:08:53;;;;;;;955.38;809.97;;;;;;;;;;5063974;28;20961;-62
2023/07/24 11:11:23;;;;;;;948.03;797.73;;;;;;;;;;5057581;28;20935;-62
2023/07/24 11:13:50;;;;;;;950.73;805.57;;;;;;;;;;5051827;28;20462;-62
2023/07/24 11:16:17;;;;;;;955.20;808.73;;;;;;;;;;5067275;28;21006;-62
2023/07/24 11:18:46;;;;;;;962.05;821.58;;;;;;;;;;5049689;28;20443;-62
2023/07/24 11:21:20;;;;;;;956.77;809.30;;;;;;;;;;5065544;28;20427;-62
2023/07/24 11:23:52;;;;;;;942.80;797.33;;;;;;;;;;5061796;28;20510;-62
2023/07/24 11:26:20;;;;;;;936.17;783.28;;;;;;;;;;5053650;28;20542;-62
2023/07/24 11:28:48;;;;;;;922.40;774.40;;;;;;;;;;5056674;28;20957;-62
2023/07/24 11:31:21;;;;;;;931.20;783.78;;;;;;;;;;5052708;28;20472;-62
2023/07/24 11:33:49;;;;;;;926.92;766.05;;;;;;;;;;5057261;28;20528;-62
2023/07/24 11:36:19;;;;;;;928.20;768.92;;;;;;;;;;5063960;28;20423;-63
2023/07/24 11:38:46;;;;;;;943.47;796.13;;;;;;;;;;5060530;28;20525;-61
2023/07/24 11:41:14;;;;;;;946.83;798.38;;;;;;;;;;5059400;28;20427;-62
2023/07/24 11:43:50;;;;;;;952.95;812.33;;;;;;;;;;5065708;28;20435;-62
2023/07/24 11:46:31;;;;;;;950.47;807.28;;;;;;;;;;5061823;28;20553;-62
2023/07/24 11:48:59;;;;;;;953.17;811.65;;;;;;;;;;5048985;28;20433;-62
2023/07/24 11:51:26;;;;;;;954.30;813.72;;;;;;;;;;5065005;28;20450;-63
2023/07/24 11:54:11;;;;;;;953.35;810.00;;;;;;;;;;5048453;28;20528;-62
2023/07/24 11:56:38;;;;;;;973.72;847.22;;;;;;;;;;5061143;28;20905;-63
2023/07/24 11:59:12;;;;;;;972.05;846.58;;;;;;;;;;5060159;28;20431;-63
2023/07/24 12:01:39;;;;;;;963.70;830.42;;;;;;;;;;5057812;28;20840;-62
2023/07/24 12:04:09;;;;;;;964.90;834.42;;;;;;;;;;5054858;28;20516;-63
2023/07/24 12:06:40;;;;;;;971.05;852.55;;;;;;;;;;5054837;28;20424;-63
2023/07/24 12:09:08;;;;;;;950.65;812.78;;;;;;;;;;5048833;28;20786;-62
2023/07/24 12:11:41;;;;;;;950.70;810.25;;;;;;;;;;5050179;28;20432;-64
2023/07/24 12:14:14;;;;;;;966.22;835.17;;;;;;;;;;5048515;28;20491;-63
2023/07/24 12:16:41;;;;;;;970.83;838.53;;;;;;;;;;5062552;28;20438;-62
2023/07/24 12:19:11;;;;;;;973.10;843.92;;;;;;;;;;5055599;28;21593;-62
2023/07/24 12:21:41;;;;;;;981.05;856.25;;;;;;;;;;5048952;28;20506;-62
2023/07/24 12:24:08;;;;;;;991.65;868.95;;;;;;;;;;5057388;28;20935;-62
2023/07/24 12:26:36;;;;;;;981.43;857.40;;;;;;;;;;5054217;28;20520;-63
2023/07/24 12:29:03;;;;;;;970.53;839.67;;;;;;;;;;5062927;28;20481;-62
2023/07/24 12:31:30;;;;;;;977.72;847.72;;;;;;;;;;5062529;28;20463;-63
2023/07/24 12:33:58;;;;;;;970.70;835.80;;;;;;;;;;5050743;28;20444;-63
2023/07/24 12:36:25;;;;;;;995.15;869.60;;;;;;;;;;5054349;28;20445;-62
2023/07/24 12:38:53;;;;;;;982.58;860.60;;;;;;;;;;5057052;28;20464;-62
2023/07/24 12:41:23;;;;;;;966.90;833.83;;;;;;;;;;5046798;28;20433;-63
2023/07/24 12:43:50;;;;;;;963.95;835.13;;;;;;;;;;5055469;28;20496;-62
2023/07/24 12:46:17;;;;;;;983.92;868.20;;;;;;;;;;5057714;28;20530;-62
2023/07/24 12:48:53;;;;;;;969.38;846.85;;;;;;;;;;5057711;28;20437;-62
2023/07/24 12:51:23;;;;;;;966.73;837.17;;;;;;;;;;5051163;28;20435;-61
2023/07/24 12:53:50;;;;;;;957.80;815.53;;;;;;;;;;5060472;28;20506;-62
2023/07/24 12:56:24;;;;;;;951.75;806.58;;;;;;;;;;5050923;28;20489;-62
2023/07/24 12:58:51;;;;;;;949.05;803.67;;;;;;;;;;5059591;28;20522;-62
2023/07/24 13:01:18;;;;;;;945.03;788.50;;;;;;;;;;5048650;28;20511;-62
2023/07/24 13:03:45;;;;;;;953.13;804.97;;;;;;;;;;5047893;28;20513;-62
2023/07/24 13:06:19;;;;;;;957.17;813.97;;;;;;;;;;5056809;28;20427;-63
2023/07/24 13:08:46;;;;;;;959.47;811.88;;;;;;;;;;5060680;28;20428;-62
2023/07/24 13:11:13;;;;;;;948.65;794.95;;;;;;;;;;5057533;28;20423;-62
2023/07/24 13:13:40;;;;;;;950.87;802.20;;;;;;;;;;5057011;28;20425;-62
2023/07/24 13:16:08;;;;;;;939.72;773.03;;;;;;;;;;5046945;28;20436;-62
2023/07/24 13:18:35;;;;;;;938.63;771.70;;;;;;;;;;5047627;28;20444;-62
2023/07/24 13:21:02;;;;;;;934.08;759.70;;;;;;;;;;5060746;28;20424;-62
2023/07/24 13:23:29;;;;;;;935.03;764.88;;;;;;;;;;5053605;28;20424;-62
2023/07/24 13:25:57;;;;;;;932.55;758.67;;;;;;;;;;5066534;28;20510;-62
2023/07/24 13:28:24;;;;;;;932.03;757.58;;;;;;;;;;5060480;28;20448;-63
2023/07/24 13:30:51;;;;;;;931.50;753.92;;;;;;;;;;5057810;28;20427;-63
2023/07/24 13:33:22;;;;;;;941.65;774.00;;;;;;;;;;5052178;28;20425;-63
2023/07/24 13:35:49;;;;;;;930.95;749.85;;;;;;;;;;5049463;28;20500;-62
2023/07/24 13:38:17;;;;;;;926.73;731.97;;;;;;;;;;5054341;28;20433;-62
2023/07/24 13:40:48;;;;;;;915.00;699.80;;;;;;;;;;5062389;28;20442;-66
2023/07/24 13:43:18;;;;;;;898.35;670.25;;;;;;;;;;5055171;28;20421;-66
2023/07/24 13:45:49;;;;;;;888.80;646.90;;;;;;;;;;5093606;28;20477;-65
2023/07/24 13:48:16;;;;;;;888.13;660.58;;;;;;;;;;5059248;28;20430;-66
2023/07/24 13:50:43;;;;;;;872.55;641.47;;;;;;;;;;5063799;28;22053;-66
2023/07/24 13:53:15;;;;;;;859.25;638.25;;;;;;;;;;5063619;28;20435;-66
2023/07/24 13:55:42;;;;;;;861.90;651.45;;;;;;;;;;5056071;28;20479;-66
2023/07/24 13:58:12;;;;;;;866.95;660.25;;;;;;;;;;5061617;28;20908;-66
2023/07/24 14:00:40;;;;;;;864.83;653.78;;;;;;;;;;5056090;28;20437;-65
2023/07/24 14:03:07;;;;;;;880.67;669.88;;;;;;;;;;5054487;28;20469;-65